createdAt,value
2022-07-25T00:01:59.461Z,20.90
2022-07-25T00:04:27.832Z,20.90
2022-07-25T00:07:06.483Z,20.90
2022-07-25T00:09:38.578Z,20.90
2022-07-25T00:12:06.135Z,20.90
2022-07-25T00:14:34.618Z,20.80
2022-07-25T00:17:06.617Z,20.70
2022-07-25T00:19:33.741Z,20.60
2022-07-25T00:22:00.923Z,20.60
2022-07-25T00:24:28.069Z,20.60
2022-07-25T00:26:55.360Z,20.60
2022-07-25T00:29:22.422Z,20.60
2022-07-25T00:31:49.822Z,20.70
2022-07-25T00:34:16.889Z,20.80
2022-07-25T00:36:43.941Z,20.70
2022-07-25T00:39:10.931Z,20.70
2022-07-25T00:41:38.053Z,20.60
2022-07-25T00:44:05.756Z,20.60
2022-07-25T00:46:33.298Z,20.50
2022-07-25T00:49:03.643Z,20.50
2022-07-25T00:51:30.986Z,20.50
2022-07-25T00:53:58.328Z,20.50
2022-07-25T00:56:25.394Z,20.40
2022-07-25T00:58:52.556Z,20.40
2022-07-25T01:01:19.697Z,20.40
2022-07-25T01:03:46.778Z,20.30
2022-07-25T01:06:15.326Z,20.30
2022-07-25T01:08:43.001Z,20.20
2022-07-25T01:11:11.020Z,20.20
2022-07-25T01:13:38.521Z,20.20
2022-07-25T01:16:06.425Z,20.20
2022-07-25T01:18:37.655Z,20.20
2022-07-25T01:21:05.383Z,20.20
2022-07-25T01:23:32.505Z,20.20
2022-07-25T01:25:59.640Z,20.20
2022-07-25T01:28:27.698Z,20.20
2022-07-25T01:30:54.804Z,20.30
2022-07-25T01:33:22.677Z,20.30
2022-07-25T01:35:50.656Z,20.40
2022-07-25T01:38:18.025Z,20.40
2022-07-25T01:40:45.459Z,20.30
2022-07-25T01:43:12.759Z,20.30
2022-07-25T01:45:39.780Z,20.30
2022-07-25T01:48:07.076Z,20.20
2022-07-25T01:50:34.684Z,20.30
2022-07-25T01:53:01.842Z,20.30
2022-07-25T01:55:29.888Z,20.30
2022-07-25T01:57:58.185Z,20.20
2022-07-25T02:00:25.326Z,20.20
2022-07-25T02:03:12.301Z,20.10
2022-07-25T02:05:39.490Z,20.10
2022-07-25T02:08:06.557Z,20.10
2022-07-25T02:10:33.862Z,20.10
2022-07-25T02:13:04.204Z,20.00
2022-07-25T02:15:31.308Z,20.10
2022-07-25T02:17:58.426Z,20.10
2022-07-25T02:20:25.483Z,20.00
2022-07-25T02:23:10.120Z,20.00
2022-07-25T02:25:39.220Z,20.00
2022-07-25T02:28:06.283Z,20.00
2022-07-25T02:30:33.404Z,19.90
2022-07-25T02:33:00.509Z,19.80
2022-07-25T02:35:27.545Z,19.80
2022-07-25T02:37:54.740Z,19.70
2022-07-25T02:40:22.174Z,19.70
2022-07-25T02:42:49.357Z,19.60
2022-07-25T02:45:16.357Z,19.50
2022-07-25T02:47:43.427Z,19.50
2022-07-25T02:50:14.924Z,19.50
2022-07-25T02:52:43.440Z,19.50
2022-07-25T02:55:11.821Z,19.50
2022-07-25T02:57:38.982Z,19.50
2022-07-25T03:00:08.398Z,19.50
2022-07-25T03:02:37.726Z,19.50
2022-07-25T03:07:50.798Z,19.50
2022-07-25T03:10:18.094Z,19.40
2022-07-25T03:12:45.495Z,19.40
2022-07-25T03:15:14.046Z,19.40
2022-07-25T03:17:42.134Z,19.40
2022-07-25T03:20:10.030Z,19.40
2022-07-25T03:22:37.411Z,19.40
2022-07-25T03:25:05.380Z,19.40
2022-07-25T03:27:42.409Z,19.40
2022-07-25T03:30:35.181Z,19.40
2022-07-25T03:33:02.224Z,19.40
2022-07-25T03:35:29.243Z,19.40
2022-07-25T03:37:56.311Z,19.40
2022-07-25T03:40:23.361Z,19.40
2022-07-25T03:42:50.385Z,19.40
2022-07-25T03:45:17.882Z,19.30
2022-07-25T03:47:45.051Z,19.30
2022-07-25T03:50:12.356Z,19.30
2022-07-25T03:52:39.645Z,19.30
2022-07-25T03:55:10.110Z,19.40
2022-07-25T03:57:41.045Z,19.50
2022-07-25T04:00:10.183Z,19.50
2022-07-25T04:02:38.116Z,19.50
2022-07-25T04:05:07.356Z,19.50
2022-07-25T04:07:35.901Z,19.60
2022-07-25T04:10:05.950Z,19.50
2022-07-25T04:12:33.389Z,19.50
2022-07-25T04:15:00.428Z,19.50
2022-07-25T04:17:27.506Z,19.50
2022-07-25T04:19:58.200Z,19.50
2022-07-25T04:22:25.246Z,19.60
2022-07-25T04:24:52.333Z,19.60
2022-07-25T04:27:19.317Z,19.60
2022-07-25T04:29:46.405Z,19.70
2022-07-25T04:32:14.787Z,19.80
2022-07-25T04:34:43.735Z,19.80
2022-07-25T04:37:14.471Z,19.80
2022-07-25T04:39:41.539Z,20.00
2022-07-25T04:42:08.656Z,20.00
2022-07-25T04:44:35.783Z,20.10
2022-07-25T04:47:02.815Z,20.10
2022-07-25T04:49:29.994Z,20.20
2022-07-25T04:51:57.187Z,20.30
2022-07-25T04:54:24.230Z,20.30
2022-07-25T04:56:51.216Z,20.40
2022-07-25T04:59:18.227Z,20.40
2022-07-25T05:02:11.160Z,20.40
2022-07-25T05:04:43.364Z,20.50
2022-07-25T05:07:12.298Z,20.70
2022-07-25T05:09:42.499Z,20.70
2022-07-25T05:12:10.121Z,20.80
2022-07-25T05:14:38.412Z,21.00
2022-07-25T05:17:06.576Z,21.00
2022-07-25T05:19:33.645Z,21.10
2022-07-25T05:22:00.834Z,21.20
2022-07-25T05:24:28.013Z,21.20
2022-07-25T05:26:55.057Z,21.30
2022-07-25T05:29:36.364Z,21.30
2022-07-25T05:32:03.730Z,21.40
2022-07-25T05:34:30.950Z,21.50
2022-07-25T05:36:58.160Z,21.60
2022-07-25T05:39:25.178Z,21.60
2022-07-25T05:41:53.209Z,21.70
2022-07-25T05:44:20.275Z,21.80
2022-07-25T05:46:47.352Z,21.80
2022-07-25T05:49:15.984Z,21.90
2022-07-25T05:51:43.060Z,21.90
2022-07-25T05:54:10.373Z,22.00
2022-07-25T05:56:37.461Z,22.10
2022-07-25T05:59:04.687Z,22.10
2022-07-25T06:01:31.807Z,22.20
2022-07-25T06:03:58.910Z,22.30
2022-07-25T06:06:25.985Z,22.40
2022-07-25T06:08:53.004Z,22.50
2022-07-25T06:11:21.325Z,22.60
2022-07-25T06:13:48.555Z,22.70
2022-07-25T06:16:15.729Z,22.80
2022-07-25T06:18:42.736Z,22.90
2022-07-25T06:21:09.883Z,23.00
2022-07-25T06:23:37.077Z,23.20
2022-07-25T06:26:06.500Z,23.30
2022-07-25T06:28:33.546Z,23.40
2022-07-25T06:31:00.629Z,23.50
2022-07-25T06:33:30.888Z,23.60
2022-07-25T06:36:01.357Z,23.70
2022-07-25T06:38:28.459Z,23.80
2022-07-25T06:40:59.783Z,24.00
2022-07-25T06:43:26.857Z,24.10
2022-07-25T06:45:54.712Z,24.30
2022-07-25T06:48:23.939Z,24.30
2022-07-25T06:50:51.689Z,24.50
2022-07-25T06:53:18.824Z,24.60
2022-07-25T06:55:45.918Z,24.80
2022-07-25T06:58:13.002Z,25.00
2022-07-25T07:00:40.642Z,25.10
2022-07-25T07:03:28.249Z,25.40
2022-07-25T07:05:55.516Z,25.60
2022-07-25T07:08:23.830Z,25.60
2022-07-25T07:10:53.223Z,25.60
2022-07-25T07:13:24.463Z,25.80
2022-07-25T07:15:53.460Z,25.80
2022-07-25T07:18:22.000Z,25.90
2022-07-25T07:20:49.406Z,26.20
2022-07-25T07:23:20.617Z,26.30
2022-07-25T07:25:47.779Z,26.50
2022-07-25T07:28:21.012Z,26.80
2022-07-25T07:33:40.508Z,26.80
2022-07-25T07:36:10.741Z,26.60
2022-07-25T07:38:37.870Z,26.40
2022-07-25T07:41:05.029Z,26.50
2022-07-25T07:43:34.310Z,26.20
2022-07-25T07:46:01.962Z,26.00
2022-07-25T07:48:33.469Z,25.90
2022-07-25T07:51:02.083Z,25.90
2022-07-25T07:53:56.892Z,26.00
2022-07-25T07:56:24.204Z,26.10
2022-07-25T07:58:51.353Z,26.30
2022-07-25T08:01:18.739Z,26.40
2022-07-25T08:03:46.035Z,26.50
2022-07-25T08:06:13.199Z,26.60
2022-07-25T08:09:05.428Z,26.80
2022-07-25T08:11:32.677Z,26.70
2022-07-25T08:14:25.230Z,26.60
2022-07-25T08:16:52.947Z,26.30
2022-07-25T08:19:21.025Z,26.30
2022-07-25T08:22:11.165Z,26.20
2022-07-25T08:24:38.313Z,26.00
2022-07-25T08:27:05.464Z,25.90
2022-07-25T08:29:32.553Z,25.90
2022-07-25T08:31:59.698Z,26.30
2022-07-25T08:34:26.880Z,26.70
2022-07-25T08:36:54.822Z,26.80
2022-07-25T08:39:22.035Z,26.60
2022-07-25T08:41:50.144Z,26.50
2022-07-25T08:44:18.711Z,26.60
2022-07-25T08:46:46.360Z,26.50
2022-07-25T08:49:13.717Z,26.30
2022-07-25T08:51:41.395Z,26.20
2022-07-25T08:54:09.621Z,26.00
2022-07-25T08:56:36.971Z,25.90
2022-07-25T08:59:04.303Z,25.80
2022-07-25T09:01:34.929Z,25.60
2022-07-25T09:04:04.126Z,25.50
2022-07-25T09:06:32.530Z,25.30
2022-07-25T09:09:00.647Z,25.40
2022-07-25T09:11:34.943Z,25.40
2022-07-25T09:14:23.025Z,25.50
2022-07-25T09:16:50.495Z,25.60
2022-07-25T09:19:24.083Z,25.60
2022-07-25T09:22:10.309Z,25.70
2022-07-25T09:24:44.987Z,25.70
2022-07-25T09:27:13.050Z,25.80
2022-07-25T09:29:44.989Z,25.80
2022-07-25T09:32:20.555Z,25.80
2022-07-25T09:34:50.351Z,25.90
2022-07-25T09:37:20.415Z,25.90
2022-07-25T09:39:52.696Z,25.90
2022-07-25T09:42:27.599Z,26.00
2022-07-25T09:45:21.138Z,26.20
2022-07-25T09:48:01.132Z,26.50
2022-07-25T09:50:31.299Z,26.80
2022-07-25T09:53:02.300Z,26.90
2022-07-25T09:55:30.962Z,27.10
2022-07-25T09:57:58.146Z,27.20
2022-07-25T10:00:28.836Z,26.70
2022-07-25T10:02:55.988Z,26.70
2022-07-25T10:05:47.225Z,26.50
2022-07-25T10:08:14.770Z,26.30
2022-07-25T10:10:42.688Z,26.10
2022-07-25T10:13:17.711Z,26.00
2022-07-25T10:15:52.537Z,26.10
2022-07-25T10:18:29.548Z,26.30
2022-07-25T10:21:26.181Z,26.40
2022-07-25T10:24:15.770Z,26.70
2022-07-25T10:26:55.464Z,26.80
2022-07-25T10:29:33.741Z,27.00
2022-07-25T10:32:10.691Z,27.20
2022-07-25T10:34:39.464Z,27.20
2022-07-25T10:37:16.410Z,27.50
2022-07-25T10:39:45.913Z,27.40
2022-07-25T10:42:20.776Z,27.10
2022-07-25T10:44:51.241Z,26.80
2022-07-25T10:47:18.913Z,26.60
2022-07-25T10:50:13.840Z,26.50
2022-07-25T10:52:46.158Z,26.30
2022-07-25T10:55:23.699Z,26.20
2022-07-25T10:58:17.897Z,26.00
2022-07-25T11:00:45.389Z,25.90
2022-07-25T11:03:18.116Z,25.60
2022-07-25T11:05:49.069Z,25.30
2022-07-25T11:08:21.978Z,25.20
2022-07-25T11:10:53.365Z,25.00
2022-07-25T11:13:20.686Z,24.80
2022-07-25T11:15:48.445Z,25.00
2022-07-25T11:18:15.608Z,24.80
2022-07-25T11:20:42.694Z,25.00
2022-07-25T11:23:12.580Z,25.00
2022-07-25T11:25:42.286Z,25.40
2022-07-25T11:28:09.544Z,26.00
2022-07-25T11:30:36.825Z,26.30
2022-07-25T11:33:04.951Z,26.60
2022-07-25T11:35:33.481Z,26.50
2022-07-25T11:38:02.963Z,26.40
2022-07-25T11:40:32.657Z,26.10
2022-07-25T11:43:00.092Z,26.20
2022-07-25T11:45:30.978Z,26.20
2022-07-25T11:48:07.987Z,26.10
2022-07-25T11:50:37.872Z,25.90
2022-07-25T11:53:08.781Z,25.80
2022-07-25T11:55:42.328Z,25.70
2022-07-25T11:58:12.889Z,25.70
2022-07-25T12:00:46.255Z,25.90
2022-07-25T12:03:20.960Z,25.90
2022-07-25T12:05:49.354Z,25.90
2022-07-25T12:08:23.072Z,25.90
2022-07-25T12:10:54.928Z,26.00
2022-07-25T12:13:28.656Z,26.00
2022-07-25T12:16:00.101Z,25.70
2022-07-25T12:18:27.898Z,25.60
2022-07-25T12:20:54.983Z,25.80
2022-07-25T12:23:24.183Z,25.70
2022-07-25T12:25:51.659Z,25.70
2022-07-25T12:28:18.793Z,25.80
2022-07-25T12:30:47.078Z,25.80
2022-07-25T12:33:15.177Z,25.80
2022-07-25T12:35:43.944Z,25.90
2022-07-25T12:38:11.566Z,26.10
2022-07-25T12:40:38.895Z,25.90
2022-07-25T12:43:06.224Z,25.90
2022-07-25T12:45:35.458Z,25.90
2022-07-25T12:48:02.728Z,25.60
2022-07-25T12:50:29.988Z,25.40
2022-07-25T12:52:57.171Z,25.40
2022-07-25T12:55:24.330Z,25.40
2022-07-25T12:57:51.702Z,25.10
2022-07-25T13:00:22.333Z,25.00
2022-07-25T13:02:52.073Z,25.00
2022-07-25T13:05:20.133Z,25.10
2022-07-25T13:07:49.118Z,25.10
2022-07-25T13:10:17.110Z,25.10
2022-07-25T13:12:44.560Z,25.10
2022-07-25T13:15:11.922Z,25.40
2022-07-25T13:17:40.454Z,25.50
2022-07-25T13:20:10.152Z,25.40
2022-07-25T13:22:37.610Z,25.30
2022-07-25T13:25:05.513Z,25.30
2022-07-25T13:27:32.964Z,25.20
2022-07-25T13:30:00.226Z,24.90
2022-07-25T13:32:28.385Z,24.40
2022-07-25T13:34:55.665Z,24.20
2022-07-25T13:37:22.940Z,23.90
2022-07-25T13:39:50.120Z,23.70
2022-07-25T13:42:17.510Z,23.20
2022-07-25T13:44:44.679Z,23.20
2022-07-25T13:47:11.871Z,22.90
2022-07-25T13:49:39.145Z,22.80
2022-07-25T13:52:06.773Z,22.70
2022-07-25T13:54:34.107Z,22.60
2022-07-25T13:57:03.024Z,22.70
2022-07-25T13:59:30.603Z,22.80
2022-07-25T14:01:58.142Z,23.00
2022-07-25T14:04:25.463Z,23.20
2022-07-25T14:06:53.092Z,23.80
2022-07-25T14:09:21.658Z,24.30
2022-07-25T14:11:49.404Z,24.60
2022-07-25T14:14:17.139Z,25.00
2022-07-25T14:16:44.559Z,25.00
2022-07-25T14:19:13.826Z,24.90
2022-07-25T14:21:40.942Z,24.70
2022-07-25T14:24:11.263Z,25.00
2022-07-25T14:26:38.471Z,24.80
2022-07-25T14:29:11.966Z,24.50
2022-07-25T14:31:40.884Z,24.00
2022-07-25T14:34:08.550Z,23.70
2022-07-25T14:36:35.712Z,23.40
2022-07-25T14:39:04.660Z,23.40
2022-07-25T14:41:32.104Z,23.50
2022-07-25T14:43:59.733Z,23.90
2022-07-25T14:46:26.946Z,24.30
2022-07-25T14:48:54.255Z,24.80
2022-07-25T14:51:21.766Z,25.10
2022-07-25T14:53:53.137Z,25.10
2022-07-25T14:56:20.677Z,25.10
2022-07-25T14:58:51.602Z,25.30
2022-07-25T15:01:20.944Z,25.70
2022-07-25T15:03:48.634Z,26.00
2022-07-25T15:06:18.271Z,26.10
2022-07-25T15:08:45.436Z,25.90
2022-07-25T15:11:12.716Z,25.60
2022-07-25T15:13:39.841Z,25.80
2022-07-25T15:16:07.197Z,25.60
2022-07-25T15:18:52.129Z,25.50
2022-07-25T15:21:21.553Z,25.70
2022-07-25T15:23:52.586Z,25.20
2022-07-25T15:26:20.448Z,25.40
2022-07-25T15:28:47.688Z,25.10
2022-07-25T15:31:14.834Z,25.00
2022-07-25T15:33:42.016Z,24.80
2022-07-25T15:36:09.871Z,24.80
2022-07-25T15:38:37.864Z,24.50
2022-07-25T15:41:05.610Z,24.30
2022-07-25T15:43:33.378Z,24.10
2022-07-25T15:46:00.518Z,24.30
2022-07-25T15:48:29.138Z,25.10
2022-07-25T15:51:01.581Z,24.90
2022-07-25T15:53:29.225Z,24.60
2022-07-25T15:55:56.399Z,24.50
2022-07-25T15:58:23.884Z,24.90
2022-07-25T16:00:51.390Z,25.10
2022-07-25T16:03:18.621Z,24.90
2022-07-25T16:05:45.785Z,24.60
2022-07-25T16:08:13.014Z,24.10
2022-07-25T16:10:40.132Z,23.90
2022-07-25T16:13:07.608Z,23.80
2022-07-25T16:15:35.017Z,23.60
2022-07-25T16:18:03.111Z,23.60
2022-07-25T16:20:32.393Z,23.50
2022-07-25T16:23:00.618Z,23.60
2022-07-25T16:25:29.450Z,23.60
2022-07-25T16:27:58.472Z,23.70
2022-07-25T16:30:26.301Z,23.60
2022-07-25T16:32:53.617Z,23.60
2022-07-25T16:35:21.103Z,23.80
2022-07-25T16:37:48.203Z,23.70
2022-07-25T16:40:15.557Z,23.90
2022-07-25T16:42:44.065Z,23.90
2022-07-25T16:45:11.881Z,23.80
2022-07-25T16:47:40.924Z,23.50
2022-07-25T16:50:08.635Z,23.60
2022-07-25T16:52:35.817Z,23.30
2022-07-25T16:55:03.090Z,23.00
2022-07-25T16:57:32.081Z,23.10
2022-07-25T17:00:00.860Z,23.30
2022-07-25T17:02:29.841Z,23.10
2022-07-25T17:04:58.102Z,23.00
2022-07-25T17:07:26.008Z,22.80
2022-07-25T17:09:53.517Z,22.60
2022-07-25T17:12:21.172Z,22.60
2022-07-25T17:14:48.390Z,22.60
2022-07-25T17:17:15.478Z,22.70
2022-07-25T17:19:42.981Z,22.70
2022-07-25T17:22:10.519Z,22.60
2022-07-25T17:24:39.373Z,22.60
2022-07-25T17:27:12.000Z,22.50
2022-07-25T17:29:40.372Z,22.50
2022-07-25T17:32:07.596Z,22.60
2022-07-25T17:34:34.963Z,22.60
2022-07-25T17:37:02.874Z,22.50
2022-07-25T17:39:30.867Z,22.50
2022-07-25T17:41:58.530Z,22.50
2022-07-25T17:44:27.358Z,22.40
2022-07-25T17:46:55.268Z,22.40
2022-07-25T17:49:44.895Z,22.30
2022-07-25T17:52:16.010Z,22.20
2022-07-25T17:54:43.832Z,22.10
2022-07-25T17:57:12.184Z,22.10
2022-07-25T17:59:42.963Z,22.00
2022-07-25T18:02:28.843Z,22.00
2022-07-25T18:05:05.068Z,22.00
2022-07-25T18:07:32.271Z,21.90
2022-07-25T18:10:02.520Z,21.90
2022-07-25T18:12:37.154Z,21.80
2022-07-25T18:15:05.324Z,21.80
2022-07-25T18:17:32.477Z,21.70
2022-07-25T18:19:59.754Z,21.70
2022-07-25T18:22:26.927Z,21.70
2022-07-25T18:24:54.287Z,21.60
2022-07-25T18:27:21.561Z,21.50
2022-07-25T18:29:48.639Z,21.50
2022-07-25T18:32:17.001Z,21.50
2022-07-25T18:34:46.650Z,21.50
2022-07-25T18:37:14.027Z,21.30
2022-07-25T18:39:42.149Z,21.40
2022-07-25T18:42:09.386Z,21.40
2022-07-25T18:44:36.796Z,21.30
2022-07-25T18:47:06.902Z,21.30
2022-07-25T18:49:34.018Z,21.20
2022-07-25T18:52:08.138Z,21.10
2022-07-25T18:54:37.590Z,21.10
2022-07-25T18:57:05.788Z,21.10
2022-07-25T18:59:32.825Z,21.00
2022-07-25T19:02:00.173Z,21.00
2022-07-25T19:04:27.601Z,20.90
2022-07-25T19:06:54.835Z,20.90
2022-07-25T19:09:21.970Z,20.90
2022-07-25T19:11:49.420Z,20.90
2022-07-25T19:14:16.571Z,20.90
2022-07-25T19:16:43.918Z,20.80
2022-07-25T19:19:11.065Z,20.70
2022-07-25T19:21:38.938Z,20.70
2022-07-25T19:24:06.737Z,20.60
2022-07-25T19:26:34.013Z,20.60
2022-07-25T19:29:01.395Z,20.60
2022-07-25T19:31:28.622Z,20.50
2022-07-25T19:33:55.871Z,20.40
2022-07-25T19:36:22.980Z,20.40
2022-07-25T19:38:52.044Z,20.40
2022-07-25T19:41:19.224Z,20.40
2022-07-25T19:43:46.363Z,20.40
2022-07-25T19:46:22.129Z,20.40
2022-07-25T19:48:50.204Z,20.30
2022-07-25T19:51:17.372Z,20.30
2022-07-25T19:53:45.911Z,20.40
2022-07-25T19:56:13.081Z,20.30
2022-07-25T19:58:41.247Z,20.30
2022-07-25T20:01:12.092Z,20.30
2022-07-25T20:03:42.177Z,20.30
2022-07-25T20:06:12.098Z,20.20
2022-07-25T20:08:40.173Z,20.20
2022-07-25T20:11:07.917Z,20.10
2022-07-25T20:13:35.654Z,20.10
2022-07-25T20:16:03.890Z,20.10
2022-07-25T20:18:32.499Z,20.00
2022-07-25T20:21:00.041Z,20.00
2022-07-25T20:23:27.517Z,20.00
2022-07-25T20:25:54.971Z,20.00
2022-07-25T20:28:22.312Z,19.90
2022-07-25T20:30:50.757Z,19.90
2022-07-25T20:33:23.784Z,20.00
2022-07-25T20:35:50.833Z,19.90
2022-07-25T20:38:17.974Z,19.90
2022-07-25T20:40:49.580Z,19.90
2022-07-25T20:43:19.346Z,19.90
2022-07-25T20:45:47.560Z,19.90
2022-07-25T20:48:17.234Z,19.80
2022-07-25T20:50:44.789Z,19.80
2022-07-25T20:53:12.436Z,19.80
2022-07-25T20:55:41.765Z,19.80
2022-07-25T20:58:11.676Z,19.80
2022-07-25T21:00:40.766Z,19.80
2022-07-25T21:03:08.397Z,19.80
2022-07-25T21:05:37.773Z,19.70
2022-07-25T21:08:06.027Z,19.60
2022-07-25T21:10:33.309Z,19.60
2022-07-25T21:13:01.033Z,19.60
2022-07-25T21:15:28.242Z,19.50
2022-07-25T21:17:58.612Z,19.50
2022-07-25T21:20:25.924Z,19.40
2022-07-25T21:22:55.356Z,19.40
2022-07-25T21:25:22.729Z,19.30
2022-07-25T21:27:52.111Z,19.20
2022-07-25T21:30:19.691Z,19.10
2022-07-25T21:32:49.382Z,19.10
2022-07-25T21:35:18.066Z,19.10
2022-07-25T21:37:45.254Z,19.10
2022-07-25T21:40:12.587Z,19.10
2022-07-25T21:42:39.846Z,19.10
2022-07-25T21:45:07.784Z,19.00
2022-07-25T21:47:34.976Z,18.90
2022-07-25T21:50:25.104Z,18.90
2022-07-25T21:52:53.593Z,18.90
2022-07-25T21:55:22.299Z,18.80
2022-07-25T21:57:51.425Z,18.70
2022-07-25T22:00:19.466Z,18.70
2022-07-25T22:02:47.404Z,18.70
2022-07-25T22:05:16.259Z,18.60
2022-07-25T22:07:48.318Z,18.60
2022-07-25T22:10:17.966Z,18.50
2022-07-25T22:12:46.589Z,18.50
2022-07-25T22:15:14.442Z,18.50
2022-07-25T22:17:48.395Z,18.50
2022-07-25T22:20:20.810Z,18.40
2022-07-25T22:22:48.750Z,18.40
2022-07-25T22:25:17.121Z,18.40
2022-07-25T22:27:50.165Z,18.30
2022-07-25T22:30:20.513Z,18.30
2022-07-25T22:33:05.624Z,18.30
2022-07-25T22:35:32.692Z,18.30
2022-07-25T22:38:00.843Z,18.40
2022-07-25T22:40:27.947Z,18.40
2022-07-25T22:42:55.130Z,18.40
2022-07-25T22:45:25.260Z,18.40
2022-07-25T22:47:52.436Z,18.40
2022-07-25T22:50:19.689Z,18.50
2022-07-25T22:52:46.880Z,18.50
2022-07-25T22:55:16.459Z,18.60
2022-07-25T22:58:59.232Z,18.60
2022-07-25T23:01:26.602Z,18.50
2022-07-25T23:03:53.830Z,18.60
2022-07-25T23:06:21.973Z,18.50
2022-07-25T23:08:49.747Z,18.50
2022-07-25T23:11:18.006Z,18.50
2022-07-25T23:13:45.303Z,18.50
2022-07-25T23:16:12.882Z,18.50
2022-07-25T23:18:40.263Z,18.50
2022-07-25T23:21:15.029Z,18.50
2022-07-25T23:23:42.291Z,18.50
2022-07-25T23:26:09.691Z,18.50
2022-07-25T23:28:37.131Z,18.40
2022-07-25T23:31:04.839Z,18.40
2022-07-25T23:33:32.274Z,18.40
2022-07-25T23:35:59.692Z,18.40
2022-07-25T23:38:29.472Z,18.30
2022-07-25T23:40:56.847Z,18.30
2022-07-25T23:43:37.022Z,18.30
2022-07-25T23:46:20.320Z,18.20
2022-07-25T23:48:59.295Z,18.20
2022-07-25T23:51:26.641Z,18.20
2022-07-25T23:53:53.879Z,18.20
2022-07-25T23:56:21.465Z,18.20
2022-07-25T23:58:52.206Z,18.10
